createdAt,value
2022-12-06T00:01:52.445Z,36.50
2022-12-06T00:04:00.140Z,36.17
2022-12-06T00:06:23.035Z,38.50
2022-12-06T00:08:24.803Z,35.88
2022-12-06T00:10:26.923Z,35.67
2022-12-06T00:12:28.751Z,36.17
2022-12-06T00:14:30.962Z,36.53
2022-12-06T00:16:33.947Z,36.35
2022-12-06T00:18:37.675Z,38.50
2022-12-06T00:20:39.779Z,37.95
2022-12-06T00:22:45.293Z,38.53
2022-12-06T00:24:47.127Z,38.50
2022-12-06T00:26:50.812Z,37.20
2022-12-06T00:28:54.629Z,36.78
2022-12-06T00:31:00.369Z,36.58
2022-12-06T00:33:02.483Z,36.65
2022-12-06T00:35:04.711Z,36.50
2022-12-06T00:37:06.862Z,37.92
2022-12-06T00:39:11.584Z,37.38
2022-12-06T00:41:18.447Z,37.28
2022-12-06T00:43:20.580Z,36.40
2022-12-06T00:45:22.434Z,38.28
2022-12-06T00:47:24.242Z,39.13
2022-12-06T00:49:26.493Z,38.15
2022-12-06T00:51:30.752Z,38.75
2022-12-06T00:53:32.709Z,39.22
2022-12-06T00:55:34.877Z,38.47
2022-12-06T00:57:36.685Z,37.33
2022-12-06T00:59:38.463Z,38.40
2022-12-06T01:01:41.480Z,37.70
2022-12-06T01:03:45.028Z,40.05
2022-12-06T01:05:49.693Z,37.75
2022-12-06T01:07:51.832Z,38.67
2022-12-06T01:09:53.622Z,39.92
2022-12-06T01:11:55.717Z,38.67
2022-12-06T01:13:58.471Z,36.70
2022-12-06T01:16:08.363Z,37.85
2022-12-06T01:18:10.247Z,38.40
2022-12-06T01:20:12.487Z,40.70
2022-12-06T01:22:14.310Z,39.85
2022-12-06T01:24:16.469Z,39.92
2022-12-06T01:26:33.153Z,39.08
2022-12-06T01:28:35.437Z,39.10
2022-12-06T01:30:40.008Z,40.10
2022-12-06T01:32:42.061Z,38.83
2022-12-06T01:34:45.353Z,38.42
2022-12-06T01:38:54.287Z,37.83
2022-12-06T01:40:56.236Z,39.53
2022-12-06T01:42:58.046Z,38.40
2022-12-06T01:45:00.669Z,41.15
2022-12-06T01:47:02.590Z,33.10
2022-12-06T01:49:04.294Z,40.72
2022-12-06T01:51:09.534Z,40.87
2022-12-06T01:53:13.145Z,39.03
2022-12-06T01:55:17.031Z,41.00
2022-12-06T01:57:19.262Z,41.05
2022-12-06T01:59:22.469Z,40.10
2022-12-06T02:01:27.129Z,40.75
2022-12-06T02:03:32.190Z,38.92
2022-12-06T02:05:40.726Z,39.75
2022-12-06T02:07:44.605Z,39.20
2022-12-06T02:09:47.855Z,38.88
2022-12-06T02:11:49.633Z,40.58
2022-12-06T02:13:52.001Z,39.88
2022-12-06T02:16:16.012Z,38.38
2022-12-06T02:18:41.216Z,38.50
2022-12-06T02:20:55.266Z,38.95
2022-12-06T02:23:30.830Z,39.15
2022-12-06T02:26:10.533Z,39.90
2022-12-06T02:28:34.728Z,38.90
2022-12-06T02:30:46.090Z,39.30
2022-12-06T02:33:00.414Z,39.45
2022-12-06T02:35:34.525Z,39.05
2022-12-06T02:37:58.622Z,37.45
2022-12-06T02:42:26.113Z,38.90
2022-12-06T02:44:42.200Z,39.05
2022-12-06T02:46:44.856Z,39.50
2022-12-06T02:48:49.786Z,40.45
2022-12-06T02:51:00.112Z,40.35
2022-12-06T02:53:04.284Z,38.83
2022-12-06T02:55:08.478Z,38.42
2022-12-06T02:57:10.279Z,40.13
2022-12-06T02:59:12.458Z,39.80
2022-12-06T03:01:37.841Z,39.55
2022-12-06T03:03:51.512Z,40.72
2022-12-06T03:08:17.555Z,37.88
2022-12-06T03:10:43.615Z,39.55
2022-12-06T03:12:57.534Z,38.60
2022-12-06T03:15:11.989Z,38.13
2022-12-06T03:17:44.674Z,38.95
2022-12-06T03:19:51.307Z,38.60
2022-12-06T03:22:15.124Z,38.25
2022-12-06T03:24:17.698Z,38.78
2022-12-06T03:26:24.057Z,39.55
2022-12-06T03:28:27.284Z,37.80
2022-12-06T03:30:33.001Z,38.35
2022-12-06T03:32:37.493Z,36.97
2022-12-06T03:34:43.748Z,40.50
2022-12-06T03:36:49.118Z,37.83
2022-12-06T03:38:58.016Z,38.03
2022-12-06T03:41:05.613Z,38.80
2022-12-06T03:43:07.979Z,38.42
2022-12-06T03:45:12.244Z,38.40
2022-12-06T03:47:37.017Z,40.13
2022-12-06T03:49:43.301Z,39.45
2022-12-06T03:51:46.179Z,39.72
2022-12-06T03:53:53.641Z,38.65
2022-12-06T03:55:55.470Z,38.17
2022-12-06T03:57:57.426Z,38.40
2022-12-06T03:59:59.773Z,39.03
2022-12-06T04:02:01.996Z,40.10
2022-12-06T04:04:04.499Z,39.80
2022-12-06T04:06:07.806Z,37.58
2022-12-06T04:08:09.649Z,39.03
2022-12-06T04:10:11.787Z,38.80
2022-12-06T04:12:32.342Z,38.30
2022-12-06T04:14:39.325Z,37.80
2022-12-06T04:16:59.591Z,38.75
2022-12-06T04:19:01.698Z,40.28
2022-12-06T04:21:23.088Z,37.35
2022-12-06T04:23:26.110Z,38.03
2022-12-06T04:25:27.869Z,38.65
2022-12-06T04:27:48.077Z,37.75
2022-12-06T04:30:08.982Z,37.83
2022-12-06T04:32:29.223Z,37.58
2022-12-06T04:34:50.146Z,39.40
2022-12-06T04:37:10.822Z,39.05
2022-12-06T04:39:17.576Z,37.17
2022-12-06T04:41:41.318Z,37.58
2022-12-06T04:43:43.060Z,36.65
2022-12-06T04:45:45.190Z,38.15
2022-12-06T04:47:47.137Z,38.10
2022-12-06T04:49:49.253Z,38.70
2022-12-06T04:51:52.229Z,39.58
2022-12-06T04:55:56.347Z,36.22
2022-12-06T04:57:58.095Z,36.72
2022-12-06T05:00:00.278Z,37.63
2022-12-06T05:02:02.763Z,37.88
2022-12-06T05:04:04.801Z,37.50
2022-12-06T05:06:06.953Z,37.90
2022-12-06T05:08:10.264Z,37.13
2022-12-06T05:10:12.175Z,36.92
2022-12-06T05:12:14.004Z,37.10
2022-12-06T05:14:16.125Z,37.08
2022-12-06T05:16:18.092Z,37.70
2022-12-06T05:18:20.823Z,36.83
2022-12-06T05:20:23.430Z,39.67
2022-12-06T05:22:25.262Z,38.63
2022-12-06T05:24:27.364Z,36.92
2022-12-06T05:26:29.463Z,36.05
2022-12-06T05:28:31.693Z,35.40
2022-12-06T05:30:33.812Z,34.08
2022-12-06T05:32:35.575Z,35.58
2022-12-06T05:34:37.813Z,34.67
2022-12-06T05:36:39.986Z,35.38
2022-12-06T05:38:45.732Z,34.38
2022-12-06T05:40:51.293Z,37.40
2022-12-06T05:42:53.050Z,35.03
2022-12-06T05:44:54.799Z,36.10
2022-12-06T05:46:57.170Z,34.75
2022-12-06T05:48:58.953Z,33.63
2022-12-06T05:51:00.780Z,35.72
2022-12-06T05:53:03.716Z,32.35
2022-12-06T05:55:05.691Z,33.53
2022-12-06T05:57:07.481Z,31.13
2022-12-06T05:59:09.709Z,32.65
2022-12-06T06:01:11.638Z,31.02
2022-12-06T06:03:13.820Z,32.53
2022-12-06T06:05:16.214Z,30.38
2022-12-06T06:07:17.980Z,30.98
2022-12-06T06:09:20.202Z,31.10
2022-12-06T06:11:22.058Z,30.48
2022-12-06T06:13:24.015Z,32.35
2022-12-06T06:15:26.219Z,32.00
2022-12-06T06:17:27.988Z,33.50
2022-12-06T06:19:30.191Z,31.75
2022-12-06T06:21:32.445Z,32.78
2022-12-06T06:23:34.290Z,31.85
2022-12-06T06:25:39.861Z,31.25
2022-12-06T06:27:42.034Z,31.98
2022-12-06T06:29:45.611Z,31.90
2022-12-06T06:31:47.628Z,29.17
2022-12-06T06:33:50.020Z,31.50
2022-12-06T06:35:51.759Z,29.85
2022-12-06T06:37:53.528Z,29.80
2022-12-06T06:39:56.458Z,28.90
2022-12-06T06:41:58.373Z,30.33
2022-12-06T06:44:00.260Z,34.53
2022-12-06T06:46:04.639Z,33.35
2022-12-06T06:48:06.642Z,31.38
2022-12-06T06:50:08.721Z,30.60
2022-12-06T06:52:10.934Z,29.75
2022-12-06T06:54:12.950Z,29.90
2022-12-06T06:56:15.382Z,33.73
2022-12-06T06:58:17.538Z,32.17
2022-12-06T07:00:19.419Z,35.38
2022-12-06T07:02:21.188Z,36.65
2022-12-06T07:04:23.425Z,44.40
2022-12-06T07:06:25.310Z,41.67
2022-12-06T07:08:28.746Z,40.65
2022-12-06T07:10:31.710Z,30.48
2022-12-06T07:12:33.526Z,29.45
2022-12-06T07:14:35.354Z,29.38
2022-12-06T07:16:37.702Z,29.48
2022-12-06T07:18:39.595Z,29.88
2022-12-06T07:20:41.394Z,27.58
2022-12-06T07:22:43.605Z,31.27
2022-12-06T07:24:50.780Z,30.40
2022-12-06T07:26:56.848Z,30.30
2022-12-06T07:28:59.926Z,29.55
2022-12-06T07:31:14.379Z,31.92
2022-12-06T07:33:16.201Z,30.65
2022-12-06T07:35:18.055Z,37.78
2022-12-06T07:37:20.761Z,31.10
2022-12-06T07:39:22.914Z,34.90
2022-12-06T07:41:46.570Z,39.50
2022-12-06T07:44:08.779Z,31.23
2022-12-06T07:46:11.817Z,26.65
2022-12-06T07:48:14.124Z,27.15
2022-12-06T07:50:18.773Z,25.95
2022-12-06T07:52:21.093Z,27.20
2022-12-06T07:54:24.161Z,26.90
2022-12-06T07:56:26.379Z,26.35
2022-12-06T07:58:28.587Z,28.48
2022-12-06T08:00:30.723Z,27.88
2022-12-06T08:02:32.924Z,28.25
2022-12-06T08:04:35.311Z,28.52
2022-12-06T08:06:37.406Z,30.15
2022-12-06T08:08:39.666Z,30.98
2022-12-06T08:10:41.518Z,29.23
2022-12-06T08:12:43.656Z,27.50
2022-12-06T08:14:45.528Z,28.60
2022-12-06T08:16:47.259Z,28.55
2022-12-06T08:18:49.772Z,31.02
2022-12-06T08:20:53.301Z,31.83
2022-12-06T08:22:55.099Z,34.00
2022-12-06T08:24:57.320Z,33.30
2022-12-06T08:27:00.222Z,32.17
2022-12-06T08:31:26.395Z,35.60
2022-12-06T08:33:28.748Z,63.70
2022-12-06T08:35:30.922Z,35.15
2022-12-06T08:37:34.386Z,35.13
2022-12-06T08:39:36.563Z,33.88
2022-12-06T08:41:58.448Z,33.08
2022-12-06T08:44:02.817Z,35.05
2022-12-06T08:46:04.734Z,33.42
2022-12-06T08:48:06.562Z,34.67
2022-12-06T08:50:09.153Z,35.95
2022-12-06T08:52:11.074Z,36.70
2022-12-06T08:54:15.271Z,37.42
2022-12-06T08:56:18.923Z,40.35
2022-12-06T08:58:20.671Z,38.13
2022-12-06T09:00:22.838Z,37.58
2022-12-06T09:02:24.983Z,38.38
2022-12-06T09:04:28.039Z,39.97
2022-12-06T09:06:30.538Z,47.72
2022-12-06T09:08:32.717Z,35.70
2022-12-06T09:10:34.493Z,34.95
2022-12-06T09:12:36.339Z,35.45
2022-12-06T09:14:38.631Z,37.17
2022-12-06T09:16:43.519Z,34.92
2022-12-06T09:18:46.459Z,34.55
2022-12-06T09:20:48.642Z,35.72
2022-12-06T09:22:50.428Z,36.25
2022-12-06T09:24:52.210Z,36.72
2022-12-06T09:26:54.469Z,38.50
2022-12-06T09:28:57.098Z,37.92
2022-12-06T09:30:59.028Z,37.15
2022-12-06T09:33:01.249Z,33.53
2022-12-06T09:35:03.157Z,34.28
2022-12-06T09:37:12.029Z,35.90
2022-12-06T09:39:18.631Z,34.42
2022-12-06T09:41:39.133Z,34.67
2022-12-06T09:44:02.771Z,35.58
2022-12-06T09:46:42.359Z,35.38
2022-12-06T09:48:53.510Z,35.55
2022-12-06T09:50:58.350Z,34.72
2022-12-06T09:53:19.257Z,34.40
2022-12-06T09:55:35.296Z,36.45
2022-12-06T09:57:42.996Z,37.17
2022-12-06T10:00:22.108Z,37.47
2022-12-06T10:03:02.031Z,36.50
2022-12-06T10:05:22.098Z,35.47
2022-12-06T10:07:29.896Z,36.75
2022-12-06T10:09:40.809Z,39.40
2022-12-06T10:11:54.664Z,38.85
2022-12-06T10:14:21.423Z,37.75
2022-12-06T10:16:41.613Z,36.85
2022-12-06T10:19:23.357Z,39.78
2022-12-06T10:21:42.437Z,40.10
2022-12-06T10:24:12.195Z,40.38
2022-12-06T10:26:21.950Z,40.55
2022-12-06T10:28:39.258Z,39.45
2022-12-06T10:30:52.405Z,38.92
2022-12-06T10:33:27.688Z,41.13
2022-12-06T10:35:43.300Z,40.35
2022-12-06T10:38:08.901Z,39.95
2022-12-06T10:40:21.163Z,39.50
2022-12-06T10:42:34.960Z,41.70
2022-12-06T10:44:44.579Z,40.28
2022-12-06T10:47:05.305Z,42.40
2022-12-06T10:49:24.003Z,40.17
2022-12-06T10:51:48.780Z,38.95
2022-12-06T10:54:02.035Z,39.00
2022-12-06T10:56:13.834Z,37.58
2022-12-06T10:58:25.136Z,38.80
2022-12-06T11:00:31.124Z,38.40
2022-12-06T11:02:58.902Z,38.50
2022-12-06T11:05:04.680Z,38.45
2022-12-06T11:07:16.234Z,37.92
2022-12-06T11:09:38.023Z,39.03
2022-12-06T11:11:41.399Z,37.92
2022-12-06T11:14:00.411Z,39.70
2022-12-06T11:16:05.995Z,37.70
2022-12-06T11:18:13.918Z,38.17
2022-12-06T11:20:22.959Z,38.83
2022-12-06T11:22:41.109Z,41.42
2022-12-06T11:24:50.782Z,38.42
2022-12-06T11:27:00.915Z,39.40
2022-12-06T11:29:12.823Z,41.45
2022-12-06T11:31:28.139Z,38.45
2022-12-06T11:33:33.360Z,39.28
2022-12-06T11:35:35.203Z,38.22
2022-12-06T11:37:41.442Z,37.47
2022-12-06T11:39:52.713Z,36.92
2022-12-06T11:41:57.685Z,36.95
2022-12-06T11:43:59.997Z,36.60
2022-12-06T11:46:05.791Z,37.03
2022-12-06T11:48:19.848Z,35.33
2022-12-06T11:50:22.999Z,37.35
2022-12-06T11:52:37.399Z,36.65
2022-12-06T11:54:44.441Z,38.47
2022-12-06T11:56:47.009Z,36.60
2022-12-06T11:59:21.723Z,36.05
2022-12-06T12:01:47.653Z,33.40
2022-12-06T12:03:49.603Z,33.03
2022-12-06T12:05:51.988Z,34.38
2022-12-06T12:08:00.810Z,33.47
2022-12-06T12:10:22.539Z,35.17
2022-12-06T12:12:56.161Z,37.38
2022-12-06T12:14:59.012Z,34.65
2022-12-06T12:17:03.336Z,35.58
2022-12-06T12:19:49.386Z,34.85
2022-12-06T12:21:54.609Z,37.42
2022-12-06T12:23:57.846Z,37.90
2022-12-06T12:26:14.674Z,38.58
2022-12-06T12:28:26.686Z,37.83
2022-12-06T12:30:36.920Z,37.75
2022-12-06T12:32:38.760Z,39.08
2022-12-06T12:34:42.968Z,40.80
2022-12-06T12:36:50.950Z,41.28
2022-12-06T12:38:59.112Z,42.05
2022-12-06T12:41:19.692Z,40.50
2022-12-06T12:43:24.955Z,39.72
2022-12-06T12:45:27.859Z,39.88
2022-12-06T12:47:32.085Z,42.03
2022-12-06T12:49:36.405Z,40.42
2022-12-06T12:51:41.435Z,41.33
2022-12-06T12:53:55.083Z,42.35
2022-12-06T12:56:13.110Z,43.17
2022-12-06T12:58:14.866Z,41.58
2022-12-06T13:00:30.988Z,42.13
2022-12-06T13:02:36.011Z,42.33
2022-12-06T13:05:30.804Z,44.30
2022-12-06T13:07:27.758Z,39.80
2022-12-06T13:09:55.455Z,43.28
2022-12-06T13:12:05.259Z,42.53
2022-12-06T13:14:18.064Z,43.13
2022-12-06T13:16:27.732Z,42.60
2022-12-06T13:18:38.904Z,44.88
2022-12-06T13:20:41.410Z,42.35
2022-12-06T13:22:45.496Z,45.08
2022-12-06T13:24:56.675Z,42.90
2022-12-06T13:27:02.473Z,44.38
2022-12-06T13:29:31.834Z,43.90
2022-12-06T13:31:40.142Z,45.10
2022-12-06T13:33:48.493Z,46.05
2022-12-06T13:36:06.450Z,45.30
2022-12-06T13:38:25.982Z,44.65
2022-12-06T13:40:46.083Z,45.17
2022-12-06T13:42:48.324Z,46.78
2022-12-06T13:44:50.067Z,46.92
2022-12-06T13:47:27.223Z,46.17
2022-12-06T13:49:48.598Z,43.53
2022-12-06T13:51:51.684Z,43.00
2022-12-06T13:54:05.560Z,42.50
2022-12-06T13:56:29.473Z,41.67
2022-12-06T13:58:40.076Z,41.35
2022-12-06T14:00:41.834Z,42.55
2022-12-06T14:02:46.479Z,40.95
2022-12-06T14:04:48.400Z,40.42
2022-12-06T14:06:52.707Z,42.75
2022-12-06T14:09:01.004Z,40.95
2022-12-06T14:11:29.218Z,40.25
2022-12-06T14:13:31.414Z,42.47
2022-12-06T14:15:36.182Z,43.72
2022-12-06T14:20:19.996Z,41.83
2022-12-06T14:22:25.063Z,43.08
2022-12-06T14:24:39.921Z,40.92
2022-12-06T14:26:41.874Z,41.05
2022-12-06T14:28:43.983Z,41.97
2022-12-06T14:30:46.373Z,42.00
2022-12-06T14:32:50.770Z,41.33
2022-12-06T14:35:06.030Z,43.80
2022-12-06T14:37:20.613Z,40.70
2022-12-06T14:39:28.394Z,42.65
2022-12-06T14:41:55.598Z,41.67
2022-12-06T14:43:57.418Z,40.38
2022-12-06T14:46:03.570Z,41.40
2022-12-06T14:48:05.815Z,41.88
2022-12-06T14:50:48.112Z,41.03
2022-12-06T14:52:59.665Z,38.38
2022-12-06T14:55:16.457Z,39.35
2022-12-06T14:57:24.889Z,39.28
2022-12-06T15:00:12.760Z,40.22
2022-12-06T15:01:55.755Z,40.67
2022-12-06T15:04:00.398Z,42.25
2022-12-06T15:06:23.826Z,41.03
2022-12-06T15:08:26.023Z,41.28
2022-12-06T15:10:30.158Z,40.90
2022-12-06T15:12:50.842Z,41.28
2022-12-06T15:14:52.970Z,40.83
2022-12-06T15:17:10.480Z,43.22
2022-12-06T15:19:17.404Z,41.35
2022-12-06T15:21:19.263Z,40.78
2022-12-06T15:23:36.430Z,41.05
2022-12-06T15:25:38.822Z,41.17
2022-12-06T15:27:40.656Z,38.95
2022-12-06T15:29:43.135Z,39.60
2022-12-06T15:31:52.193Z,42.35
2022-12-06T15:33:54.998Z,41.55
2022-12-06T15:35:59.084Z,41.80
2022-12-06T15:38:01.078Z,42.42
2022-12-06T15:40:04.405Z,41.00
2022-12-06T15:42:20.401Z,41.17
2022-12-06T15:44:25.579Z,40.63
2022-12-06T15:46:29.444Z,40.95
2022-12-06T15:48:36.703Z,42.25
2022-12-06T15:50:38.939Z,39.42
2022-12-06T15:52:41.116Z,39.30
2022-12-06T15:54:43.470Z,37.50
2022-12-06T15:56:45.924Z,39.40
2022-12-06T15:58:49.102Z,38.80
2022-12-06T16:00:50.982Z,38.30
2022-12-06T16:02:54.636Z,37.83
2022-12-06T16:04:56.891Z,39.55
2022-12-06T16:06:58.783Z,41.85
2022-12-06T16:09:00.583Z,40.15
2022-12-06T16:11:11.791Z,38.38
2022-12-06T16:13:23.707Z,40.13
2022-12-06T16:15:26.903Z,40.90
2022-12-06T16:17:29.076Z,42.40
2022-12-06T16:19:50.878Z,42.70
2022-12-06T16:21:55.719Z,41.55
2022-12-06T16:24:18.023Z,41.83
2022-12-06T16:26:20.286Z,39.20
2022-12-06T16:28:22.158Z,40.88
2022-12-06T16:30:33.942Z,39.28
2022-12-06T16:32:37.623Z,39.78
2022-12-06T16:34:39.534Z,36.50
2022-12-06T16:36:58.464Z,39.17
2022-12-06T16:39:04.623Z,37.50
2022-12-06T16:41:17.566Z,38.10
2022-12-06T16:45:22.443Z,32.47
2022-12-06T16:51:50.621Z,38.05
2022-12-06T16:53:54.253Z,35.65
2022-12-06T16:55:56.042Z,33.80
2022-12-06T16:57:58.443Z,34.83
2022-12-06T17:00:00.712Z,30.03
2022-12-06T17:02:05.907Z,30.77
2022-12-06T17:04:11.112Z,31.45
2022-12-06T17:06:13.001Z,32.55
2022-12-06T17:08:20.292Z,30.42
2022-12-06T17:10:23.760Z,31.33
2022-12-06T17:12:27.518Z,33.20
2022-12-06T17:14:30.947Z,30.90
2022-12-06T17:16:35.030Z,32.60
2022-12-06T17:18:40.755Z,31.48
2022-12-06T17:20:42.598Z,29.70
2022-12-06T17:22:45.499Z,32.05
2022-12-06T17:24:47.424Z,30.02
2022-12-06T17:26:50.134Z,31.43
2022-12-06T17:28:52.659Z,30.73
2022-12-06T17:30:54.532Z,29.92
2022-12-06T17:32:56.704Z,29.38
2022-12-06T17:34:58.736Z,30.42
2022-12-06T17:37:02.540Z,32.55
2022-12-06T17:39:08.801Z,31.70
2022-12-06T17:41:41.232Z,31.67
2022-12-06T17:43:43.309Z,32.53
2022-12-06T17:45:45.593Z,33.33
2022-12-06T17:47:47.527Z,32.00
2022-12-06T17:49:51.139Z,31.92
2022-12-06T17:51:53.743Z,31.77
2022-12-06T17:53:57.427Z,31.67
2022-12-06T17:56:30.546Z,32.85
2022-12-06T17:58:32.671Z,31.08
2022-12-06T18:00:34.751Z,32.13
2022-12-06T18:02:37.027Z,30.95
2022-12-06T18:04:39.124Z,32.05
2022-12-06T18:06:42.627Z,32.10
2022-12-06T18:08:44.991Z,32.10
2022-12-06T18:10:46.838Z,31.38
2022-12-06T18:12:50.306Z,32.80
2022-12-06T18:14:52.726Z,30.80
2022-12-06T18:16:54.599Z,33.03
2022-12-06T18:19:00.408Z,33.47
2022-12-06T18:21:06.070Z,33.78
2022-12-06T18:23:09.824Z,35.65
2022-12-06T18:25:11.720Z,34.63
2022-12-06T18:27:13.924Z,34.67
2022-12-06T18:29:21.347Z,36.55
2022-12-06T18:31:25.020Z,34.45
2022-12-06T18:33:31.000Z,36.20
2022-12-06T18:35:36.036Z,35.78
2022-12-06T18:37:38.581Z,36.60
2022-12-06T18:41:44.814Z,35.23
2022-12-06T18:43:47.747Z,34.67
2022-12-06T18:46:00.527Z,35.60
2022-12-06T18:48:02.590Z,35.83
2022-12-06T18:50:04.981Z,36.45
2022-12-06T18:52:07.567Z,35.72
2022-12-06T18:54:11.192Z,34.58
2022-12-06T18:56:19.430Z,34.97
2022-12-06T18:58:21.689Z,34.47
2022-12-06T19:00:23.499Z,34.40
2022-12-06T19:02:25.729Z,36.05
2022-12-06T19:04:28.185Z,35.95
2022-12-06T19:06:35.132Z,37.73
2022-12-06T19:08:43.800Z,36.78
2022-12-06T19:10:47.038Z,36.08
2022-12-06T19:12:48.939Z,35.65
2022-12-06T19:14:51.282Z,37.03
2022-12-06T19:16:54.629Z,36.83
2022-12-06T19:19:00.689Z,35.67
2022-12-06T19:21:02.571Z,42.75
2022-12-06T19:23:04.872Z,37.22
2022-12-06T19:25:06.954Z,35.40
2022-12-06T19:27:09.595Z,38.15
2022-12-06T19:29:16.818Z,34.75
2022-12-06T19:31:24.866Z,36.60
2022-12-06T19:33:27.706Z,35.13
2022-12-06T19:35:32.475Z,35.15
2022-12-06T19:37:34.355Z,35.00
2022-12-06T19:39:38.769Z,36.30
2022-12-06T19:42:03.204Z,34.88
2022-12-06T19:44:17.580Z,35.15
2022-12-06T19:46:26.237Z,36.08
2022-12-06T19:48:30.746Z,35.28
2022-12-06T19:50:39.716Z,34.13
2022-12-06T19:52:41.900Z,35.20
2022-12-06T19:54:45.496Z,34.47
2022-12-06T19:56:53.465Z,33.38
2022-12-06T19:58:57.994Z,31.90
2022-12-06T20:01:00.104Z,33.42
2022-12-06T20:03:02.599Z,32.47
2022-12-06T20:05:04.828Z,30.90
2022-12-06T20:07:07.683Z,32.25
2022-12-06T20:09:10.151Z,30.58
2022-12-06T20:11:32.595Z,30.53
2022-12-06T20:13:36.298Z,30.27
2022-12-06T20:15:38.968Z,29.58
2022-12-06T20:17:41.096Z,30.38
2022-12-06T20:19:46.030Z,32.58
2022-12-06T20:21:49.048Z,29.85
2022-12-06T20:23:53.693Z,30.70
2022-12-06T20:25:56.989Z,34.72
2022-12-06T20:28:02.468Z,33.63
2022-12-06T20:30:06.712Z,33.33
2022-12-06T20:32:09.420Z,29.77
2022-12-06T20:34:35.347Z,28.02
2022-12-06T20:36:38.443Z,42.65
2022-12-06T20:38:40.486Z,32.50
2022-12-06T20:40:42.324Z,31.13
2022-12-06T20:42:46.346Z,29.65
2022-12-06T20:44:50.015Z,34.40
2022-12-06T20:46:53.735Z,31.17
2022-12-06T20:48:58.727Z,31.73
2022-12-06T20:51:09.419Z,34.08
2022-12-06T20:53:11.722Z,33.35
2022-12-06T20:55:14.110Z,34.17
2022-12-06T20:57:16.442Z,33.03
2022-12-06T20:59:20.269Z,34.67
2022-12-06T21:01:26.701Z,32.90
2022-12-06T21:03:29.474Z,33.25
2022-12-06T21:05:31.257Z,35.58
2022-12-06T21:07:33.530Z,33.85
2022-12-06T21:09:35.559Z,34.33
2022-12-06T21:11:38.647Z,34.92
2022-12-06T21:13:41.758Z,34.10
2022-12-06T21:15:45.661Z,33.95
2022-12-06T21:17:48.147Z,33.90
2022-12-06T21:19:50.056Z,32.60
2022-12-06T21:21:57.969Z,33.80
2022-12-06T21:24:06.026Z,33.33
2022-12-06T21:26:10.662Z,32.35
2022-12-06T21:28:15.272Z,29.63
2022-12-06T21:30:17.581Z,32.65
2022-12-06T21:34:23.183Z,28.77
2022-12-06T21:36:27.994Z,29.47
2022-12-06T21:38:31.303Z,30.38
2022-12-06T21:40:34.086Z,33.10
2022-12-06T21:42:37.138Z,33.97
2022-12-06T21:44:38.972Z,35.05
2022-12-06T21:46:40.804Z,36.28
2022-12-06T21:48:43.750Z,35.60
2022-12-06T21:50:45.605Z,38.30
2022-12-06T21:52:47.846Z,33.90
2022-12-06T21:54:51.194Z,36.42
2022-12-06T21:56:53.256Z,36.05
2022-12-06T21:58:55.695Z,36.47
2022-12-06T22:01:05.382Z,37.88
2022-12-06T22:03:07.622Z,34.33
2022-12-06T22:05:10.228Z,33.60
2022-12-06T22:07:12.411Z,33.10
2022-12-06T22:09:15.391Z,31.70
2022-12-06T22:11:20.215Z,32.60
2022-12-06T22:13:24.028Z,31.02
2022-12-06T22:15:28.100Z,32.25
2022-12-06T22:17:32.608Z,31.00
2022-12-06T22:19:34.446Z,29.58
2022-12-06T22:21:36.287Z,30.77
2022-12-06T22:23:38.458Z,28.80
2022-12-06T22:25:40.297Z,25.88
2022-12-06T22:27:42.113Z,31.73
2022-12-06T22:29:44.272Z,28.50
2022-12-06T22:31:46.218Z,36.45
2022-12-06T22:33:48.850Z,27.27
2022-12-06T22:35:51.319Z,24.60
2022-12-06T22:37:53.553Z,23.58
2022-12-06T22:39:55.349Z,25.02
2022-12-06T22:41:57.658Z,23.38
2022-12-06T22:44:01.803Z,24.17
2022-12-06T22:46:09.220Z,24.30
2022-12-06T22:48:11.618Z,23.35
2022-12-06T22:50:13.447Z,23.27
2022-12-06T22:52:16.976Z,23.33
2022-12-06T22:54:18.813Z,24.70
2022-12-06T22:56:21.590Z,24.17
2022-12-06T22:58:23.391Z,23.23
2022-12-06T23:00:25.196Z,21.67
2022-12-06T23:02:27.426Z,21.20
2022-12-06T23:04:29.405Z,21.35
2022-12-06T23:06:32.186Z,21.52
2022-12-06T23:08:34.654Z,20.52
2022-12-06T23:10:36.515Z,20.45
2022-12-06T23:12:39.606Z,20.58
2022-12-06T23:14:41.789Z,20.38
2022-12-06T23:16:45.208Z,19.63
2022-12-06T23:18:47.153Z,20.17
2022-12-06T23:20:49.266Z,19.98
2022-12-06T23:22:51.091Z,17.58
2022-12-06T23:24:55.133Z,17.50
2022-12-06T23:26:58.318Z,18.17
2022-12-06T23:29:00.656Z,19.45
2022-12-06T23:31:08.361Z,20.15
2022-12-06T23:33:10.523Z,19.80
2022-12-06T23:35:12.314Z,21.95
2022-12-06T23:37:14.536Z,20.17
2022-12-06T23:39:16.489Z,21.50
2022-12-06T23:41:24.178Z,22.58
2022-12-06T23:43:26.347Z,23.52
2022-12-06T23:45:28.371Z,22.65
2022-12-06T23:47:30.766Z,23.33
2022-12-06T23:49:32.703Z,23.95
2022-12-06T23:51:37.281Z,25.48
2022-12-06T23:53:39.723Z,25.08
2022-12-06T23:55:41.551Z,24.92
2022-12-06T23:57:43.668Z,24.23
2022-12-06T23:59:45.423Z,25.65
